ROMMA est une association bénévole à but non lucratif. Votre soutien est indispensable : ADHERER à ROMMA ou FAIRE un DON

Miribel-les-Echelles - (38, Isère)

Massif de la Chartreuse (760 m)   Longitude: 05° 41' 54'' E   Latitude: 45° 26' 40'' N Station romma n°22
 

Détail journalier du     <<     >>

Température Precipitation Humidité Pression Vent Dir Rafale Dir. rafale Ensol.
Heure (°C) (mm) (%) (hPa) (km/h) (km/h) (min)
01:00 5.3091101705NNO0
02:00 5.409210181O5E0
03:00 4.809310172O10O0
04:00 5.109210172O10O0
05:00 4.908610184O11OSO0
06:00 4.908910181O5O0
07:00 5.708510162SO8OSO0
08:00 5.108710161O6O0
09:00 7.0087101603O0
10:00 8.2080101705ONO0
11:00 8.708210172ESE11ESE0
12:00 9.707910172E10ESE0
13:00 10.208010172E10E0
14:00 11.608110152ESE10E0
15:00 12.708110151ENE10ESE0
16:00 14.0083101506E0
17:00 13.7084101405ESE0
18:00 13.2087101405ESE0
19:00 11.808810151ONO8NO0
20:00 11.309010151N5NNO0
21:00 11.408510162N8N0
22:00 11.308610165N15NO0
23:00 10.708510163NO10NNO0
minuit 11.008210164NNE11NNE0

Graphique du 04-10-2019

 

Serveur OMMA